sensor_id;sensor_type;location;lat;lon;timestamp;pressure;altitude;pressure_sealevel;temperature;humidity
71344;BME280;59146;43.850;25.948;2023-10-13T00:01:53;101432.41;;;14.87;51.37
71344;BME280;59146;43.850;25.948;2023-10-13T00:04:22;101440.13;;;14.90;51.26
71344;BME280;59146;43.850;25.948;2023-10-13T00:06:51;101353.06;;;14.40;51.01
71344;BME280;59146;43.850;25.948;2023-10-13T00:09:17;101400.16;;;14.71;51.38
71344;BME280;59146;43.850;25.948;2023-10-13T00:11:44;101390.28;;;14.75;51.21
71344;BME280;59146;43.850;25.948;2023-10-13T00:14:11;101416.22;;;14.93;51.61
71344;BME280;59146;43.850;25.948;2023-10-13T00:16:41;101457.47;;;15.07;50.44
71344;BME280;59146;43.850;25.948;2023-10-13T00:19:07;101355.50;;;14.57;51.34
71344;BME280;59146;43.850;25.948;2023-10-13T00:21:35;101415.59;;;14.90;50.74
71344;BME280;59146;43.850;25.948;2023-10-13T00:24:01;101356.16;;;14.47;50.99
71344;BME280;59146;43.850;25.948;2023-10-13T00:26:31;101439.34;;;15.02;51.10
71344;BME280;59146;43.850;25.948;2023-10-13T00:29:02;101375.41;;;14.47;52.01
71344;BME280;59146;43.850;25.948;2023-10-13T00:31:40;101389.78;;;14.56;51.44
71344;BME280;59146;43.850;25.948;2023-10-13T00:34:09;101400.56;;;14.51;52.19
71344;BME280;59146;43.850;25.948;2023-10-13T00:36:41;101436.50;;;14.65;51.89
71344;BME280;59146;43.850;25.948;2023-10-13T00:39:25;101311.22;;;13.81;52.17
71344;BME280;59146;43.850;25.948;2023-10-13T00:41:54;101400.94;;;14.31;52.42
71344;BME280;59146;43.850;25.948;2023-10-13T00:44:24;101483.38;;;14.72;52.10
71344;BME280;59146;43.850;25.948;2023-10-13T00:47:09;101464.31;;;14.41;52.72
71344;BME280;59146;43.850;25.948;2023-10-13T00:49:36;101432.13;;;13.93;53.32
71344;BME280;59146;43.850;25.948;2023-10-13T00:52:08;101472.50;;;14.20;54.19
71344;BME280;59146;43.850;25.948;2023-10-13T00:54:36;101390.09;;;13.79;53.35
71344;BME280;59146;43.850;25.948;2023-10-13T00:57:03;101442.22;;;14.01;53.96
71344;BME280;59146;43.850;25.948;2023-10-13T00:59:53;101407.34;;;13.69;54.24
71344;BME280;59146;43.850;25.948;2023-10-13T01:02:20;101415.31;;;13.68;54.54
71344;BME280;59146;43.850;25.948;2023-10-13T01:05:07;101445.19;;;13.95;53.82
71344;BME280;59146;43.850;25.948;2023-10-13T01:07:44;101452.25;;;14.08;53.89
71344;BME280;59146;43.850;25.948;2023-10-13T01:10:11;101433.66;;;13.97;53.91
71344;BME280;59146;43.850;25.948;2023-10-13T01:12:40;101465.09;;;14.13;53.72
71344;BME280;59146;43.850;25.948;2023-10-13T01:15:08;101463.97;;;14.17;53.78
71344;BME280;59146;43.850;25.948;2023-10-13T01:17:36;101411.13;;;13.93;53.74
71344;BME280;59146;43.850;25.948;2023-10-13T01:20:02;101389.44;;;13.76;54.24
71344;BME280;59146;43.850;25.948;2023-10-13T01:22:30;101390.84;;;13.81;53.76
71344;BME280;59146;43.850;25.948;2023-10-13T01:24:57;101439.66;;;13.99;53.80
71344;BME280;59146;43.850;25.948;2023-10-13T01:27:29;101469.97;;;14.05;54.36
71344;BME280;59146;43.850;25.948;2023-10-13T01:29:55;101446.88;;;13.96;54.51
71344;BME280;59146;43.850;25.948;2023-10-13T01:32:35;101394.22;;;13.69;54.50
71344;BME280;59146;43.850;25.948;2023-10-13T01:35:06;101385.84;;;13.63;53.97
71344;BME280;59146;43.850;25.948;2023-10-13T01:37:32;101424.50;;;13.75;54.30
71344;BME280;59146;43.850;25.948;2023-10-13T01:39:57;101448.25;;;13.87;54.41
71344;BME280;59146;43.850;25.948;2023-10-13T01:42:23;101431.47;;;13.76;54.98
71344;BME280;59146;43.850;25.948;2023-10-13T01:44:50;101426.78;;;13.81;54.95
71344;BME280;59146;43.850;25.948;2023-10-13T01:47:16;101366.47;;;13.35;55.14
71344;BME280;59146;43.850;25.948;2023-10-13T01:49:42;101382.97;;;13.67;54.50
71344;BME280;59146;43.850;25.948;2023-10-13T01:52:09;101434.06;;;14.05;53.54
71344;BME280;59146;43.850;25.948;2023-10-13T01:54:41;101242.50;;;13.02;53.78
71344;BME280;59146;43.850;25.948;2023-10-13T01:57:07;101389.56;;;13.88;53.69
71344;BME280;59146;43.850;25.948;2023-10-13T01:59:33;101403.19;;;13.95;53.94
71344;BME280;59146;43.850;25.948;2023-10-13T02:02:03;101380.72;;;13.75;54.18
71344;BME280;59146;43.850;25.948;2023-10-13T02:04:30;101368.34;;;13.77;53.75
71344;BME280;59146;43.850;25.948;2023-10-13T02:07:07;101411.88;;;13.95;53.77
71344;BME280;59146;43.850;25.948;2023-10-13T02:09:33;101342.34;;;13.44;53.89
71344;BME280;59146;43.850;25.948;2023-10-13T02:12:02;101455.53;;;14.12;54.21
71344;BME280;59146;43.850;25.948;2023-10-13T02:14:27;101430.56;;;14.05;54.12
71344;BME280;59146;43.850;25.948;2023-10-13T02:16:53;101323.97;;;13.44;53.74
71344;BME280;59146;43.850;25.948;2023-10-13T02:19:38;101281.66;;;13.21;53.51
71344;BME280;59146;43.850;25.948;2023-10-13T02:22:06;101288.13;;;13.29;54.09
71344;BME280;59146;43.850;25.948;2023-10-13T02:24:35;101394.88;;;13.87;53.96
71344;BME280;59146;43.850;25.948;2023-10-13T02:27:06;101398.63;;;13.83;53.88
71344;BME280;59146;43.850;25.948;2023-10-13T02:29:39;101458.34;;;14.09;53.75
71344;BME280;59146;43.850;25.948;2023-10-13T02:32:05;101413.25;;;13.73;54.59
71344;BME280;59146;43.850;25.948;2023-10-13T02:34:38;101444.97;;;13.70;54.69
71344;BME280;59146;43.850;25.948;2023-10-13T02:37:09;101334.41;;;12.69;56.33
71344;BME280;59146;43.850;25.948;2023-10-13T02:39:35;101397.25;;;13.02;56.78
71344;BME280;59146;43.850;25.948;2023-10-13T02:42:01;101469.25;;;13.12;58.53
71344;BME280;59146;43.850;25.948;2023-10-13T02:44:32;101444.78;;;12.81;59.24
71344;BME280;59146;43.850;25.948;2023-10-13T02:46:58;101425.00;;;12.75;59.20
71344;BME280;59146;43.850;25.948;2023-10-13T02:49:27;101441.81;;;12.87;59.25
71344;BME280;59146;43.850;25.948;2023-10-13T02:51:56;101421.78;;;12.70;58.82
71344;BME280;59146;43.850;25.948;2023-10-13T02:54:24;101465.44;;;13.02;58.38
71344;BME280;59146;43.850;25.948;2023-10-13T02:56:55;101432.09;;;12.73;58.79
71344;BME280;59146;43.850;25.948;2023-10-13T02:59:25;101423.88;;;12.63;58.73
71344;BME280;59146;43.850;25.948;2023-10-13T03:02:03;101451.63;;;12.83;58.54
71344;BME280;59146;43.850;25.948;2023-10-13T03:04:39;101441.84;;;12.71;58.50
71344;BME280;59146;43.850;25.948;2023-10-13T03:07:05;101459.66;;;12.80;58.26
71344;BME280;59146;43.850;25.948;2023-10-13T03:09:31;101443.00;;;12.65;57.95
71344;BME280;59146;43.850;25.948;2023-10-13T03:12:02;101418.13;;;12.57;58.23
71344;BME280;59146;43.850;25.948;2023-10-13T03:14:29;101454.41;;;12.80;58.38
71344;BME280;59146;43.850;25.948;2023-10-13T03:17:02;101409.06;;;12.47;58.18
71344;BME280;59146;43.850;25.948;2023-10-13T03:19:28;101263.16;;;11.52;58.63
71344;BME280;59146;43.850;25.948;2023-10-13T03:22:08;101420.50;;;12.46;58.96
71344;BME280;59146;43.850;25.948;2023-10-13T03:24:39;101404.66;;;12.32;59.12
71344;BME280;59146;43.850;25.948;2023-10-13T03:27:11;101438.78;;;12.63;58.36
71344;BME280;59146;43.850;25.948;2023-10-13T03:29:41;101319.47;;;11.76;58.55
71344;BME280;59146;43.850;25.948;2023-10-13T03:32:14;101443.84;;;12.50;58.79
71344;BME280;59146;43.850;25.948;2023-10-13T03:34:40;101451.56;;;12.69;58.67
71344;BME280;59146;43.850;25.948;2023-10-13T03:37:15;101438.69;;;12.64;58.73
71344;BME280;59146;43.850;25.948;2023-10-13T03:39:44;101444.44;;;12.71;58.62
71344;BME280;59146;43.850;25.948;2023-10-13T03:42:11;101431.34;;;12.71;58.39
71344;BME280;59146;43.850;25.948;2023-10-13T03:44:45;101399.88;;;12.55;58.77
71344;BME280;59146;43.850;25.948;2023-10-13T03:47:12;101419.16;;;12.70;58.74
71344;BME280;59146;43.850;25.948;2023-10-13T03:49:44;101443.59;;;12.86;58.52
71344;BME280;59146;43.850;25.948;2023-10-13T03:52:10;101374.72;;;12.36;58.79
71344;BME280;59146;43.850;25.948;2023-10-13T03:54:39;101395.31;;;12.43;59.06
71344;BME280;59146;43.850;25.948;2023-10-13T03:57:07;101431.84;;;12.62;58.85
71344;BME280;59146;43.850;25.948;2023-10-13T03:59:37;101378.91;;;12.40;58.79
71344;BME280;59146;43.850;25.948;2023-10-13T04:02:03;101394.72;;;12.54;58.72
71344;BME280;59146;43.850;25.948;2023-10-13T04:04:37;101436.25;;;12.77;58.32
71344;BME280;59146;43.850;25.948;2023-10-13T04:07:03;101396.50;;;12.53;58.30
71344;BME280;59146;43.850;25.948;2023-10-13T04:09:36;101425.25;;;12.70;57.95
71344;BME280;59146;43.850;25.948;2023-10-13T04:12:03;101420.84;;;12.71;58.29
71344;BME280;59146;43.850;25.948;2023-10-13T04:14:38;101471.69;;;13.00;58.50
71344;BME280;59146;43.850;25.948;2023-10-13T04:17:27;101438.25;;;12.72;58.27
71344;BME280;59146;43.850;25.948;2023-10-13T04:19:57;101471.41;;;12.89;58.40
71344;BME280;59146;43.850;25.948;2023-10-13T04:25:19;101476.91;;;12.84;58.64
71344;BME280;59146;43.850;25.948;2023-10-13T04:28:03;101447.91;;;12.71;58.52
71344;BME280;59146;43.850;25.948;2023-10-13T04:30:43;101432.25;;;12.54;58.82
71344;BME280;59146;43.850;25.948;2023-10-13T04:33:27;101469.31;;;12.95;58.46
71344;BME280;59146;43.850;25.948;2023-10-13T04:36:13;101416.97;;;12.62;58.29
71344;BME280;59146;43.850;25.948;2023-10-13T04:38:55;101465.59;;;12.99;58.31
71344;BME280;59146;43.850;25.948;2023-10-13T04:41:39;101480.09;;;13.06;58.07
71344;BME280;59146;43.850;25.948;2023-10-13T04:44:06;101442.44;;;12.92;58.32
71344;BME280;59146;43.850;25.948;2023-10-13T04:46:50;101411.81;;;12.76;57.75
71344;BME280;59146;43.850;25.948;2023-10-13T04:49:16;101445.56;;;12.98;57.76
71344;BME280;59146;43.850;25.948;2023-10-13T04:52:03;101446.91;;;13.05;57.58
71344;BME280;59146;43.850;25.948;2023-10-13T04:54:41;101421.34;;;12.93;57.21
71344;BME280;59146;43.850;25.948;2023-10-13T04:57:22;101492.59;;;13.32;56.84
71344;BME280;59146;43.850;25.948;2023-10-13T04:59:51;101511.41;;;13.40;57.22
71344;BME280;59146;43.850;25.948;2023-10-13T05:02:29;101446.75;;;13.08;57.07
71344;BME280;59146;43.850;25.948;2023-10-13T05:05:11;101462.50;;;13.08;57.47
71344;BME280;59146;43.850;25.948;2023-10-13T05:07:36;101487.19;;;13.20;57.48
71344;BME280;59146;43.850;25.948;2023-10-13T05:10:20;101439.31;;;13.16;57.08
71344;BME280;59146;43.850;25.948;2023-10-13T05:13:25;101513.03;;;13.73;56.63
71344;BME280;59146;43.850;25.948;2023-10-13T05:16:09;101462.38;;;13.41;56.02
71344;BME280;59146;43.850;25.948;2023-10-13T05:18:53;101478.63;;;13.47;56.35
71344;BME280;59146;43.850;25.948;2023-10-13T05:21:37;101358.97;;;12.68;56.04
71344;BME280;59146;43.850;25.948;2023-10-13T05:24:21;101449.78;;;13.32;56.44
71344;BME280;59146;43.850;25.948;2023-10-13T05:27:05;101470.63;;;13.65;56.40
71344;BME280;59146;43.850;25.948;2023-10-13T05:29:49;101513.78;;;14.04;55.54
71344;BME280;59146;43.850;25.948;2023-10-13T05:32:33;101513.81;;;14.18;55.17
71344;BME280;59146;43.850;25.948;2023-10-13T05:35:20;101498.13;;;14.47;54.71
71344;BME280;59146;43.850;25.948;2023-10-13T05:38:05;101506.19;;;15.27;52.13
71344;BME280;59146;43.850;25.948;2023-10-13T05:40:56;101499.59;;;16.00;49.73
71344;BME280;59146;43.850;25.948;2023-10-13T05:43:40;101431.94;;;16.38;48.16
71344;BME280;59146;43.850;25.948;2023-10-13T05:46:24;101505.41;;;17.29;46.48
71344;BME280;59146;43.850;25.948;2023-10-13T05:48:53;101482.22;;;17.69;44.84
71344;BME280;59146;43.850;25.948;2023-10-13T05:51:25;101525.41;;;18.37;44.31
71344;BME280;59146;43.850;25.948;2023-10-13T05:54:13;101531.88;;;18.68;43.16
71344;BME280;59146;43.850;25.948;2023-10-13T05:56:42;101509.44;;;18.39;43.70
71344;BME280;59146;43.850;25.948;2023-10-13T05:59:27;101465.59;;;18.47;43.05
71344;BME280;59146;43.850;25.948;2023-10-13T06:02:13;101513.09;;;18.82;42.95
71344;BME280;59146;43.850;25.948;2023-10-13T06:05:01;101521.16;;;18.69;43.06
71344;BME280;59146;43.850;25.948;2023-10-13T06:07:45;101462.06;;;18.69;42.96
71344;BME280;59146;43.850;25.948;2023-10-13T06:10:29;101544.47;;;19.20;42.39
71344;BME280;59146;43.850;25.948;2023-10-13T06:13:13;101488.19;;;18.73;42.74
71344;BME280;59146;43.850;25.948;2023-10-13T06:15:57;101517.28;;;18.73;43.66
71344;BME280;59146;43.850;25.948;2023-10-13T06:18:41;101485.25;;;19.10;42.47
71344;BME280;59146;43.850;25.948;2023-10-13T06:21:25;101375.38;;;18.50;42.10
71344;BME280;59146;43.850;25.948;2023-10-13T06:24:09;101509.00;;;18.78;42.57
71344;BME280;59146;43.850;25.948;2023-10-13T06:26:54;101497.44;;;18.00;44.22
71344;BME280;59146;43.850;25.948;2023-10-13T06:29:37;101565.31;;;18.91;43.73
71344;BME280;59146;43.850;25.948;2023-10-13T06:32:03;101552.75;;;18.49;44.15
71344;BME280;59146;43.850;25.948;2023-10-13T06:34:36;101527.03;;;18.51;43.52
71344;BME280;59146;43.850;25.948;2023-10-13T06:37:16;101519.00;;;18.17;44.16
71344;BME280;59146;43.850;25.948;2023-10-13T06:39:49;101488.03;;;18.31;43.87
71344;BME280;59146;43.850;25.948;2023-10-13T06:42:15;101523.59;;;18.38;44.18
71344;BME280;59146;43.850;25.948;2023-10-13T06:44:42;101510.31;;;18.61;43.78
71344;BME280;59146;43.850;25.948;2023-10-13T06:47:11;101555.91;;;19.20;43.19
71344;BME280;59146;43.850;25.948;2023-10-13T06:49:37;101483.97;;;18.71;43.13
71344;BME280;59146;43.850;25.948;2023-10-13T06:52:05;101545.34;;;18.76;43.44
71344;BME280;59146;43.850;25.948;2023-10-13T06:54:34;101496.88;;;18.18;45.39
71344;BME280;59146;43.850;25.948;2023-10-13T06:57:00;101513.22;;;18.47;44.88
71344;BME280;59146;43.850;25.948;2023-10-13T06:59:32;101541.09;;;19.18;44.18
71344;BME280;59146;43.850;25.948;2023-10-13T07:02:00;101579.50;;;19.12;45.62
71344;BME280;59146;43.850;25.948;2023-10-13T07:04:32;101540.28;;;18.95;45.61
71344;BME280;59146;43.850;25.948;2023-10-13T07:06:57;101530.41;;;18.53;46.71
71344;BME280;59146;43.850;25.948;2023-10-13T07:09:22;101526.91;;;18.52;46.81
71344;BME280;59146;43.850;25.948;2023-10-13T07:12:00;101532.75;;;18.34;47.66
71344;BME280;59146;43.850;25.948;2023-10-13T07:14:28;101532.25;;;18.40;47.94
71344;BME280;59146;43.850;25.948;2023-10-13T07:17:04;101578.06;;;19.08;46.82
71344;BME280;59146;43.850;25.948;2023-10-13T07:19:31;101571.13;;;19.61;45.22
71344;BME280;59146;43.850;25.948;2023-10-13T07:22:02;101577.63;;;19.68;45.93
71344;BME280;59146;43.850;25.948;2023-10-13T07:24:46;101578.03;;;19.84;45.10
71344;BME280;59146;43.850;25.948;2023-10-13T07:27:24;101488.34;;;19.26;45.18
71344;BME280;59146;43.850;25.948;2023-10-13T07:29:51;101565.63;;;19.85;45.06
71344;BME280;59146;43.850;25.948;2023-10-13T07:32:23;101559.19;;;20.50;43.64
71344;BME280;59146;43.850;25.948;2023-10-13T07:34:55;101564.47;;;20.30;43.79
71344;BME280;59146;43.850;25.948;2023-10-13T07:37:22;101495.44;;;19.47;44.81
71344;BME280;59146;43.850;25.948;2023-10-13T07:39:53;101573.19;;;20.00;44.82
71344;BME280;59146;43.850;25.948;2023-10-13T07:42:18;101504.00;;;19.71;44.92
71344;BME280;59146;43.850;25.948;2023-10-13T07:44:47;101588.53;;;19.86;45.59
71344;BME280;59146;43.850;25.948;2023-10-13T07:47:12;101582.84;;;19.58;45.87
71344;BME280;59146;43.850;25.948;2023-10-13T07:49:40;101595.97;;;19.60;46.05
71344;BME280;59146;43.850;25.948;2023-10-13T07:52:08;101563.81;;;19.31;46.88
71344;BME280;59146;43.850;25.948;2023-10-13T07:54:48;101533.91;;;18.97;47.46
71344;BME280;59146;43.850;25.948;2023-10-13T07:57:21;101582.13;;;19.23;47.58
71344;BME280;59146;43.850;25.948;2023-10-13T07:59:57;101566.38;;;19.11;47.92
71344;BME280;59146;43.850;25.948;2023-10-13T08:02:59;101602.13;;;19.60;47.13
71344;BME280;59146;43.850;25.948;2023-10-13T08:05:51;101575.75;;;19.79;47.10
71344;BME280;59146;43.850;25.948;2023-10-13T08:08:23;101530.25;;;19.74;46.47
71344;BME280;59146;43.850;25.948;2023-10-13T08:11:04;101535.25;;;19.89;46.09
71344;BME280;59146;43.850;25.948;2023-10-13T08:13:37;101578.72;;;20.29;45.90
71344;BME280;59146;43.850;25.948;2023-10-13T08:16:03;101605.25;;;20.49;45.82
71344;BME280;59146;43.850;25.948;2023-10-13T08:18:35;101542.84;;;20.14;44.75
71344;BME280;59146;43.850;25.948;2023-10-13T08:21:04;101562.53;;;20.32;44.79
71344;BME280;59146;43.850;25.948;2023-10-13T08:23:30;101583.84;;;20.41;44.57
71344;BME280;59146;43.850;25.948;2023-10-13T08:26:22;101590.56;;;20.66;44.21
71344;BME280;59146;43.850;25.948;2023-10-13T08:29:07;101587.38;;;20.72;44.24
71344;BME280;59146;43.850;25.948;2023-10-13T08:31:51;101501.16;;;20.05;44.41
71344;BME280;59146;43.850;25.948;2023-10-13T08:34:33;101537.91;;;20.71;43.54
71344;BME280;59146;43.850;25.948;2023-10-13T08:37:07;101575.34;;;20.98;43.50
71344;BME280;59146;43.850;25.948;2023-10-13T08:39:45;101582.19;;;21.21;43.18
71344;BME280;59146;43.850;25.948;2023-10-13T08:42:32;101601.09;;;21.28;42.47
71344;BME280;59146;43.850;25.948;2023-10-13T08:45:08;101582.34;;;21.29;42.63
71344;BME280;59146;43.850;25.948;2023-10-13T08:47:50;101595.88;;;21.76;41.94
71344;BME280;59146;43.850;25.948;2023-10-13T08:50:48;101553.72;;;21.62;41.94
71344;BME280;59146;43.850;25.948;2023-10-13T08:53:20;101592.56;;;22.02;41.49
71344;BME280;59146;43.850;25.948;2023-10-13T08:55:53;101551.47;;;21.76;41.64
71344;BME280;59146;43.850;25.948;2023-10-13T08:58:31;101590.16;;;22.09;40.94
71344;BME280;59146;43.850;25.948;2023-10-13T09:01:15;101571.81;;;22.25;41.02
71344;BME280;59146;43.850;25.948;2023-10-13T09:04:05;101575.69;;;22.59;40.51
71344;BME280;59146;43.850;25.948;2023-10-13T09:06:53;101544.91;;;22.28;40.60
71344;BME280;59146;43.850;25.948;2023-10-13T09:09:31;101575.06;;;22.75;39.81
71344;BME280;59146;43.850;25.948;2023-10-13T09:12:21;101577.72;;;22.84;40.30
71344;BME280;59146;43.850;25.948;2023-10-13T09:15:00;101557.47;;;22.55;40.10
71344;BME280;59146;43.850;25.948;2023-10-13T09:17:49;101561.97;;;22.45;40.34
71344;BME280;59146;43.850;25.948;2023-10-13T09:20:38;101477.22;;;21.84;40.90
71344;BME280;59146;43.850;25.948;2023-10-13T09:23:10;101530.09;;;22.16;40.85
71344;BME280;59146;43.850;25.948;2023-10-13T09:25:39;101521.66;;;22.21;40.89
71344;BME280;59146;43.850;25.948;2023-10-13T09:28:30;101564.00;;;22.79;40.15
71344;BME280;59146;43.850;25.948;2023-10-13T09:30:56;101555.91;;;22.71;40.59
71344;BME280;59146;43.850;25.948;2023-10-13T09:33:27;101534.41;;;22.82;40.30
71344;BME280;59146;43.850;25.948;2023-10-13T09:36:02;101539.75;;;23.10;39.39
71344;BME280;59146;43.850;25.948;2023-10-13T09:38:32;101528.50;;;22.88;39.84
71344;BME280;59146;43.850;25.948;2023-10-13T09:40:58;101556.78;;;22.89;40.06
71344;BME280;59146;43.850;25.948;2023-10-13T09:43:27;101582.41;;;23.00;40.74
71344;BME280;59146;43.850;25.948;2023-10-13T09:45:59;101516.56;;;22.46;40.42
71344;BME280;59146;43.850;25.948;2023-10-13T09:48:38;101539.28;;;22.60;40.65
71344;BME280;59146;43.850;25.948;2023-10-13T09:51:15;101574.47;;;22.90;40.12
71344;BME280;59146;43.850;25.948;2023-10-13T09:53:52;101545.75;;;22.84;40.71
71344;BME280;59146;43.850;25.948;2023-10-13T09:56:30;101570.25;;;22.98;40.64
71344;BME280;59146;43.850;25.948;2023-10-13T09:59:06;101548.44;;;22.84;41.12
71344;BME280;59146;43.850;25.948;2023-10-13T10:01:54;101532.13;;;22.87;41.68
71344;BME280;59146;43.850;25.948;2023-10-13T10:04:23;101506.78;;;22.37;42.61
71344;BME280;59146;43.850;25.948;2023-10-13T10:06:57;101534.34;;;22.55;41.74
71344;BME280;59146;43.850;25.948;2023-10-13T10:09:27;101548.03;;;23.07;40.86
71344;BME280;59146;43.850;25.948;2023-10-13T10:17:53;101538.31;;;23.42;39.54
71344;BME280;59146;43.850;25.948;2023-10-13T10:20:31;101511.22;;;23.47;38.52
71344;BME280;59146;43.850;25.948;2023-10-13T10:23:10;101522.72;;;23.83;38.36
71344;BME280;59146;43.850;25.948;2023-10-13T10:25:47;101505.34;;;23.79;38.28
71344;BME280;59146;43.850;25.948;2023-10-13T10:28:13;101526.69;;;23.96;37.84
71344;BME280;59146;43.850;25.948;2023-10-13T10:30:41;101504.81;;;23.57;37.62
71344;BME280;59146;43.850;25.948;2023-10-13T10:33:08;101539.78;;;23.72;38.60
71344;BME280;59146;43.850;25.948;2023-10-13T10:35:41;101553.88;;;24.00;38.15
71344;BME280;59146;43.850;25.948;2023-10-13T10:38:13;101506.88;;;23.81;37.22
71344;BME280;59146;43.850;25.948;2023-10-13T10:41:02;101516.38;;;24.19;37.00
71344;BME280;59146;43.850;25.948;2023-10-13T10:43:38;101561.03;;;24.34;36.54
71344;BME280;59146;43.850;25.948;2023-10-13T10:46:34;101554.78;;;24.26;36.92
71344;BME280;59146;43.850;25.948;2023-10-13T10:49:07;101521.34;;;23.96;37.02
71344;BME280;59146;43.850;25.948;2023-10-13T10:51:36;101549.28;;;24.53;36.97
71344;BME280;59146;43.850;25.948;2023-10-13T10:54:17;101506.63;;;24.35;36.78
71344;BME280;59146;43.850;25.948;2023-10-13T10:56:43;101546.84;;;24.60;36.92
71344;BME280;59146;43.850;25.948;2023-10-13T10:59:09;101487.28;;;24.33;36.82
71344;BME280;59146;43.850;25.948;2023-10-13T11:01:44;101536.53;;;24.65;36.48
71344;BME280;59146;43.850;25.948;2023-10-13T11:04:14;101532.16;;;24.64;36.36
71344;BME280;59146;43.850;25.948;2023-10-13T11:06:50;101476.72;;;24.58;35.40
71344;BME280;59146;43.850;25.948;2023-10-13T11:09:27;101536.78;;;25.21;35.36
71344;BME280;59146;43.850;25.948;2023-10-13T11:14:31;101484.28;;;24.70;35.71
71344;BME280;59146;43.850;25.948;2023-10-13T11:16:58;101522.72;;;25.11;34.92
71344;BME280;59146;43.850;25.948;2023-10-13T11:19:35;101505.69;;;25.20;35.16
71344;BME280;59146;43.850;25.948;2023-10-13T11:24:41;101530.91;;;25.59;34.48
71344;BME280;59146;43.850;25.948;2023-10-13T11:27:15;101471.31;;;25.25;34.38
71344;BME280;59146;43.850;25.948;2023-10-13T11:29:46;101470.66;;;25.39;34.77
71344;BME280;59146;43.850;25.948;2023-10-13T11:32:17;101476.13;;;25.13;35.18
71344;BME280;59146;43.850;25.948;2023-10-13T11:34:45;101487.78;;;25.04;35.90
71344;BME280;59146;43.850;25.948;2023-10-13T11:37:10;101498.16;;;25.07;36.22
71344;BME280;59146;43.850;25.948;2023-10-13T11:39:54;101526.41;;;25.10;36.57
71344;BME280;59146;43.850;25.948;2023-10-13T11:42:20;101479.09;;;24.69;36.44
71344;BME280;59146;43.850;25.948;2023-10-13T11:44:45;101500.94;;;24.90;36.20
71344;BME280;59146;43.850;25.948;2023-10-13T11:47:11;101381.63;;;24.31;35.12
71344;BME280;59146;43.850;25.948;2023-10-13T11:50:08;101494.91;;;24.80;35.66
71344;BME280;59146;43.850;25.948;2023-10-13T11:52:34;101463.31;;;24.75;35.57
71344;BME280;59146;43.850;25.948;2023-10-13T11:54:59;101460.91;;;24.72;35.84
71344;BME280;59146;43.850;25.948;2023-10-13T11:57:24;101487.78;;;24.71;35.82
71344;BME280;59146;43.850;25.948;2023-10-13T11:59:51;101489.78;;;24.69;35.87
71344;BME280;59146;43.850;25.948;2023-10-13T12:02:21;101486.91;;;24.88;35.70
71344;BME280;59146;43.850;25.948;2023-10-13T12:04:50;101418.66;;;24.68;35.46
71344;BME280;59146;43.850;25.948;2023-10-13T12:07:23;101489.63;;;25.12;35.22
71344;BME280;59146;43.850;25.948;2023-10-13T12:10:07;101443.47;;;24.86;35.76
71344;BME280;59146;43.850;25.948;2023-10-13T12:12:40;101457.81;;;24.51;36.33
71344;BME280;59146;43.850;25.948;2023-10-13T12:15:08;101433.50;;;24.62;36.34
71344;BME280;59146;43.850;25.948;2023-10-13T12:18:01;101463.03;;;24.86;35.59
71344;BME280;59146;43.850;25.948;2023-10-13T12:20:28;101470.88;;;24.88;35.40
71344;BME280;59146;43.850;25.948;2023-10-13T12:23:01;101489.81;;;25.10;35.31
71344;BME280;59146;43.850;25.948;2023-10-13T12:25:40;101462.53;;;24.99;34.98
71344;BME280;59146;43.850;25.948;2023-10-13T12:28:21;101492.31;;;25.12;37.52
71344;BME280;59146;43.850;25.948;2023-10-13T12:30:49;101434.13;;;24.82;38.87
71344;BME280;59146;43.850;25.948;2023-10-13T12:33:15;101418.97;;;24.57;40.05
71344;BME280;59146;43.850;25.948;2023-10-13T12:35:49;101314.50;;;23.92;39.81
71344;BME280;59146;43.850;25.948;2023-10-13T12:38:30;101454.81;;;24.46;44.10
71344;BME280;59146;43.850;25.948;2023-10-13T12:41:05;101474.25;;;24.38;43.93
71344;BME280;59146;43.850;25.948;2023-10-13T12:43:49;101506.50;;;24.45;43.10
71344;BME280;59146;43.850;25.948;2023-10-13T12:46:33;101509.97;;;24.63;42.94
71344;BME280;59146;43.850;25.948;2023-10-13T12:49:17;101499.13;;;24.39;41.58
71344;BME280;59146;43.850;25.948;2023-10-13T12:52:02;101503.28;;;24.33;41.11
71344;BME280;59146;43.850;25.948;2023-10-13T12:54:28;101510.00;;;24.37;41.36
71344;BME280;59146;43.850;25.948;2023-10-13T12:57:03;101516.59;;;24.59;41.13
71344;BME280;59146;43.850;25.948;2023-10-13T12:59:34;101500.13;;;24.72;40.30
71344;BME280;59146;43.850;25.948;2023-10-13T13:01:59;101495.53;;;24.74;39.02
71344;BME280;59146;43.850;25.948;2023-10-13T13:04:25;101501.63;;;24.92;37.66
71344;BME280;59146;43.850;25.948;2023-10-13T13:06:57;101437.88;;;24.71;37.52
71344;BME280;59146;43.850;25.948;2023-10-13T13:09:22;101432.44;;;24.81;36.29
71344;BME280;59146;43.850;25.948;2023-10-13T13:11:54;101474.16;;;25.32;36.12
71344;BME280;59146;43.850;25.948;2023-10-13T13:14:23;101492.25;;;25.62;37.04
71344;BME280;59146;43.850;25.948;2023-10-13T13:16:57;101492.44;;;25.68;36.42
71344;BME280;59146;43.850;25.948;2023-10-13T13:19:39;101507.81;;;25.50;38.56
71344;BME280;59146;43.850;25.948;2023-10-13T13:22:05;101504.38;;;25.24;39.50
71344;BME280;59146;43.850;25.948;2023-10-13T13:24:40;101460.63;;;24.75;39.92
71344;BME280;59146;43.850;25.948;2023-10-13T13:27:15;101514.03;;;25.01;39.61
71344;BME280;59146;43.850;25.948;2023-10-13T13:29:45;101412.75;;;24.48;39.35